Time;durP1;ratioP1;P1;durP2;ratioP2;P2;SDS_P1;SDS_P2;PMS_P1;PMS_P2;Temp;Humidity;BMP_temperature;BMP_pressure;BME280_temperature;BME280_humidity;BME280_pressure;Samples;Min_cycle;Max_cycle;Signal;HPM_P1;HPM_P2
2022/11/18 00:01:17;;;;;;;11.43;5.28;;;8.80;89.10;;;;;;5113705;28;20024;-53
2022/11/18 00:03:44;;;;;;;7.68;4.80;;;8.90;89.00;;;;;;5113683;28;20413;-50
2022/11/18 00:06:12;;;;;;;9.32;4.25;;;9.00;88.50;;;;;;5113672;28;20050;-50
2022/11/18 00:08:38;;;;;;;8.90;5.22;;;8.90;88.30;;;;;;5113740;28;20030;-50
2022/11/18 00:11:12;;;;;;;9.40;4.80;;;8.80;88.30;;;;;;5112483;28;20024;-48
2022/11/18 00:16:23;;;;;;;9.15;3.58;;;9.00;88.20;;;;;;5115427;28;20034;-50
2022/11/18 00:18:49;;;;;;;15.10;5.25;;;9.00;88.60;;;;;;5116692;28;20055;-51
2022/11/18 00:21:14;;;;;;;9.50;4.75;;;8.90;88.40;;;;;;5117829;28;20024;-49
2022/11/18 00:23:40;;;;;;;15.93;5.50;;;8.80;88.70;;;;;;5117749;28;20065;-48
2022/11/18 00:26:11;;;;;;;9.00;4.97;;;8.80;89.00;;;;;;5117882;28;20104;-48
2022/11/18 00:28:38;;;;;;;6.20;4.13;;;8.90;88.90;;;;;;5118055;28;20484;-48
2022/11/18 00:31:06;;;;;;;5.50;4.03;;;9.00;88.90;;;;;;5117314;28;20050;-49
2022/11/18 00:33:31;;;;;;;6.22;3.63;;;9.00;88.80;;;;;;5117398;28;20061;-49
2022/11/18 00:35:57;;;;;;;4.63;3.17;;;9.00;88.70;;;;;;5117490;28;20099;-50
2022/11/18 00:38:24;;;;;;;7.32;4.25;;;9.10;88.50;;;;;;5115799;28;20027;-47
2022/11/18 00:41:01;;;;;;;9.27;3.63;;;9.10;88.30;;;;;;5115735;28;20016;-49
2022/11/18 00:43:27;;;;;;;6.55;3.53;;;9.30;88.60;;;;;;5117054;28;20038;-49
2022/11/18 00:45:53;;;;;;;6.40;3.33;;;9.40;87.90;;;;;;5117181;28;20421;-50
2022/11/18 00:48:20;;;;;;;7.18;4.03;;;9.40;87.90;;;;;;5116982;28;20028;-48
2022/11/18 00:50:51;;;;;;;9.43;4.35;;;9.40;87.90;;;;;;5116882;28;20039;-49
2022/11/18 00:53:17;;;;;;;;;;;9.40;87.90;;;;;;5117659;28;20024;-48
2022/11/18 00:55:42;;;;;;;6.95;3.70;;;9.20;87.70;;;;;;5116717;28;19916;-50
2022/11/18 00:58:08;;;;;;;7.45;3.08;;;9.20;88.50;;;;;;5116776;28;20096;-48
2022/11/18 01:00:34;;;;;;;9.75;4.32;;;9.30;88.20;;;;;;5116706;28;20043;-49
2022/11/18 01:03:01;;;;;;;7.75;3.38;;;9.30;88.20;;;;;;5117244;28;20074;-50
2022/11/18 01:05:27;;;;;;;10.70;3.75;;;9.10;88.30;;;;;;5117033;28;20072;-52
2022/11/18 01:07:52;;;;;;;13.30;3.92;;;9.00;88.90;;;;;;5116677;28;20028;-48
2022/11/18 01:10:18;;;;;;;7.57;3.70;;;8.90;89.20;;;;;;5115344;28;20483;-49
2022/11/18 01:15:28;;;;;;;10.70;4.72;;;9.00;89.30;;;;;;5116763;28;20093;-49
2022/11/18 01:17:53;;;;;;;9.00;4.30;;;8.80;88.90;;;;;;5116472;28;20139;-48
2022/11/18 01:20:19;;;;;;;6.10;3.20;;;8.80;89.70;;;;;;5116374;28;20023;-51
2022/11/18 01:22:45;;;;;;;8.63;4.15;;;8.90;89.50;;;;;;5116564;28;20471;-49
2022/11/18 01:25:10;;;;;;;10.65;4.30;;;8.90;89.40;;;;;;5116693;28;20027;-49
2022/11/18 01:27:36;;;;;;;8.30;3.53;;;9.10;89.40;;;;;;5116074;28;20039;-49
2022/11/18 01:30:02;;;;;;;10.75;4.88;;;9.00;89.30;;;;;;5116363;28;20035;-48
2022/11/18 01:32:27;;;;;;;9.10;3.78;;;9.20;89.30;;;;;;5116254;28;20046;-51
2022/11/18 01:34:53;;;;;;;7.53;3.53;;;9.10;89.00;;;;;;5116569;28;20055;-48
2022/11/18 01:37:19;;;;;;;11.43;4.20;;;9.10;89.20;;;;;;5117316;28;20020;-49
2022/11/18 01:39:44;;;;;;;7.68;4.05;;;9.20;89.20;;;;;;5116145;28;20055;-49
2022/11/18 01:42:14;;;;;;;13.57;4.10;;;9.20;89.30;;;;;;5116486;28;20444;-50
2022/11/18 01:45:09;;;;;;;9.50;4.10;;;9.00;89.60;;;;;;5116431;28;20024;-51
2022/11/18 01:47:42;;;;;;;7.72;3.50;;;8.90;89.60;;;;;;5116648;28;20034;-48
2022/11/18 01:50:09;;;;;;;8.05;4.53;;;9.00;90.10;;;;;;5116426;27;20062;-51
2022/11/18 01:52:36;;;;;;;7.80;3.67;;;9.10;89.80;;;;;;5116114;28;20527;-50
2022/11/18 01:55:30;;;;;;;10.10;4.15;;;8.90;89.80;;;;;;5115714;28;20139;-48
2022/11/18 01:58:11;;;;;;;9.90;3.55;;;9.00;90.00;;;;;;5114747;28;20038;-49
2022/11/18 02:00:37;;;;;;;7.90;4.00;;;8.90;89.80;;;;;;5115932;28;20081;-50
2022/11/18 02:03:03;;;;;;;11.48;4.18;;;8.80;90.00;;;;;;5115951;28;20028;-50
2022/11/18 02:05:32;;;;;;;8.98;4.78;;;8.70;90.30;;;;;;5115620;28;20464;-48
2022/11/18 02:07:59;;;;;;;12.27;4.68;;;8.70;90.60;;;;;;5115497;28;20027;-51
2022/11/18 02:10:25;;;;;;;7.50;4.50;;;8.70;90.70;;;;;;5115453;28;20024;-49
2022/11/18 02:12:53;;;;;;;6.57;4.07;;;8.80;91.00;;;;;;5115657;28;20034;-49
2022/11/18 02:15:36;;;;;;;10.45;4.55;;;8.90;90.80;;;;;;5115636;27;20085;-52
2022/11/18 02:18:29;;;;;;;13.60;3.85;;;9.10;90.80;;;;;;5115363;28;20140;-49
2022/11/18 02:21:05;;;;;;;9.35;4.00;;;9.30;90.40;;;;;;5115550;28;20030;-50
2022/11/18 02:23:46;;;;;;;9.23;4.15;;;9.20;90.10;;;;;;5115499;27;20020;-50
2022/11/18 02:26:15;;;;;;;8.20;4.00;;;9.30;89.60;;;;;;5115150;27;20383;-48
2022/11/18 02:32:30;;;;;;;10.32;3.83;;;9.30;89.70;;;;;;5115164;28;20451;-51
2022/11/18 02:35:01;;;;;;;8.75;3.78;;;9.30;89.70;;;;;;5114263;28;20031;-49
2022/11/18 02:37:55;;;;;;;8.60;3.67;;;9.20;90.00;;;;;;5115395;28;20055;-50
2022/11/18 02:40:47;;;;;;;15.30;4.47;;;9.20;90.10;;;;;;5113158;28;20027;-49
2022/11/18 02:43:22;;;;;;;14.27;4.05;;;9.30;90.00;;;;;;5114522;28;20073;-49
2022/11/18 02:45:52;;;;;;;9.32;3.17;;;9.30;89.90;;;;;;5115172;28;20102;-48
2022/11/18 02:48:21;;;;;;;7.47;4.25;;;9.30;89.90;;;;;;5114782;28;20032;-48
2022/11/18 02:50:49;;;;;;;13.63;4.57;;;9.20;89.70;;;;;;5114919;28;20031;-51
2022/11/18 02:53:17;;;;;;;9.70;4.45;;;9.10;89.80;;;;;;5114528;28;20038;-52
2022/11/18 02:55:44;;;;;;;8.73;3.65;;;8.90;90.40;;;;;;5114257;28;20044;-48
2022/11/18 02:58:11;;;;;;;10.10;4.35;;;8.90;90.60;;;;;;5114494;28;20589;-50
2022/11/18 03:00:36;;;;;;;8.30;3.88;;;9.00;90.60;;;;;;5114558;28;20016;-50
2022/11/18 03:03:30;;;;;;;11.05;4.30;;;9.00;90.50;;;;;;5114405;28;20039;-48
2022/11/18 03:06:06;;;;;;;8.30;4.88;;;9.10;90.60;;;;;;5114828;28;20030;-51
2022/11/18 03:08:40;;;;;;;9.60;5.00;;;9.20;90.30;;;;;;5113301;28;20016;-49
2022/11/18 03:11:14;;;;;;;9.43;4.55;;;9.20;90.30;;;;;;5114508;28;20456;-49
2022/11/18 03:14:06;;;;;;;8.82;4.10;;;9.20;90.40;;;;;;5114410;28;20383;-48
2022/11/18 03:16:58;;;;;;;9.50;4.50;;;9.20;90.20;;;;;;5114356;28;20042;-48
2022/11/18 03:19:37;;;;;;;16.58;6.80;;;9.30;90.60;;;;;;5104036;28;20031;-49
2022/11/18 03:22:16;;;;;;;9.35;5.18;;;9.30;90.10;;;;;;5113005;28;20183;-49
2022/11/18 03:24:55;;;;;;;5.93;3.78;;;9.30;89.90;;;;;;5114840;28;20521;-48
2022/11/18 03:27:43;;;;;;;6.85;4.72;;;9.30;89.80;;;;;;5114796;28;20486;-48
2022/11/18 03:30:14;;;;;;;8.63;5.35;;;9.30;90.00;;;;;;5107557;28;20058;-48
2022/11/18 03:32:45;;;;;;;5.93;3.72;;;9.30;90.10;;;;;;5114688;28;20044;-49
2022/11/18 03:35:16;;;;;;;8.95;3.67;;;9.30;90.00;;;;;;5113985;28;20093;-50
2022/11/18 03:37:43;;;;;;;15.90;4.28;;;9.30;90.20;;;;;;5114063;28;20425;-51
2022/11/18 03:40:17;;;;;;;8.57;3.97;;;9.40;90.20;;;;;;5113013;28;20034;-51
2022/11/18 03:42:48;;;;;;;14.77;5.93;;;9.20;90.10;;;;;;5114431;28;20072;-52
2022/11/18 03:45:27;;;;;;;10.07;5.35;;;9.40;90.50;;;;;;5112743;28;20467;-49
2022/11/18 03:48:00;;;;;;;7.32;3.72;;;9.50;90.20;;;;;;5113832;28;20050;-51
2022/11/18 03:50:30;;;;;;;10.60;5.13;;;9.40;89.50;;;;;;5114119;28;20388;-46
2022/11/18 03:52:58;;;;;;;11.13;4.88;;;9.30;89.90;;;;;;5114063;28;20037;-48
2022/11/18 03:55:28;;;;;;;10.00;4.28;;;9.50;90.00;;;;;;5112291;28;20388;-48
2022/11/18 03:58:09;;;;;;;;;;;9.40;89.40;;;;;;5114302;28;20020;-47
2022/11/18 04:00:43;;;;;;;8.98;3.67;;;9.30;89.90;;;;;;5113692;28;19926;-50
2022/11/18 04:03:10;;;;;;;6.90;3.80;;;9.30;89.80;;;;;;5113999;28;20437;-49
2022/11/18 04:05:40;;;;;;;13.80;5.10;;;9.20;90.10;;;;;;5114217;28;20039;-47
2022/11/18 04:08:11;;;;;;;10.02;4.45;;;9.30;90.40;;;;;;5114134;28;20059;-49
2022/11/18 04:11:01;;;;;;;11.18;4.70;;;9.20;90.50;;;;;;5113697;28;20031;-51
2022/11/18 04:13:31;;;;;;;9.38;3.70;;;9.20;91.00;;;;;;5113695;28;20107;-50
2022/11/18 04:15:57;;;;;;;;;;;9.40;90.50;;;;;;5112742;28;20024;-53
2022/11/18 04:18:22;;;;;;;8.45;4.53;;;9.30;90.20;;;;;;5113799;28;20333;-49
2022/11/18 04:20:48;;;;;;;10.98;4.30;;;9.40;90.30;;;;;;5113633;28;20027;-51
2022/11/18 04:23:14;;;;;;;9.25;3.72;;;9.40;90.20;;;;;;5113611;28;20020;-50
2022/11/18 04:25:39;;;;;;;12.75;5.45;;;9.40;90.20;;;;;;5114045;28;20019;-51
2022/11/18 04:28:05;;;;;;;12.85;5.10;;;9.40;90.30;;;;;;5113724;28;20353;-50
2022/11/18 04:30:31;;;;;;;7.05;3.97;;;9.30;90.20;;;;;;5113728;28;20368;-52
2022/11/18 04:32:57;;;;;;;8.02;4.20;;;9.20;90.20;;;;;;5113946;28;20540;-51
2022/11/18 04:35:23;;;;;;;8.18;4.10;;;9.20;90.20;;;;;;5113543;28;20027;-53
2022/11/18 04:37:49;;;;;;;9.15;4.13;;;9.30;90.70;;;;;;5113335;28;20103;-48
2022/11/18 04:40:15;;;;;;;14.40;4.22;;;9.30;90.50;;;;;;5113653;28;20051;-50
2022/11/18 04:42:41;;;;;;;5.03;4.00;;;9.30;90.50;;;;;;5111942;28;20573;-50
2022/11/18 04:45:07;;;;;;;16.48;5.97;;;9.20;90.40;;;;;;5113241;28;20032;-50
2022/11/18 04:47:33;;;;;;;10.07;5.00;;;9.00;90.70;;;;;;5113428;28;20102;-49
2022/11/18 04:49:58;;;;;;;13.88;5.78;;;9.30;91.20;;;;;;5113163;28;20107;-49
2022/11/18 04:52:24;;;;;;;5.90;3.88;;;9.30;90.70;;;;;;5113553;28;20027;-48
2022/11/18 04:54:50;;;;;;;11.32;5.20;;;9.30;90.50;;;;;;5111727;28;20052;-52
2022/11/18 04:57:16;;;;;;;12.50;4.80;;;9.30;90.30;;;;;;5113238;28;20448;-50
2022/11/18 04:59:41;;;;;;;7.78;4.50;;;9.30;90.30;;;;;;5113226;28;20472;-48
2022/11/18 05:02:07;;;;;;;21.05;6.45;;;9.30;90.30;;;;;;5114118;28;20020;-49
2022/11/18 05:04:33;;;;;;;12.70;5.88;;;9.30;90.30;;;;;;5117112;28;20059;-51
2022/11/18 05:07:01;;;;;;;13.68;5.82;;;9.30;90.30;;;;;;5116811;28;20028;-49
2022/11/18 05:09:27;;;;;;;10.07;5.85;;;9.20;90.40;;;;;;5116888;28;20019;-49
2022/11/18 05:14:37;;;;;;;14.40;6.85;;;9.00;90.90;;;;;;5117045;28;20030;-49
2022/11/18 05:17:05;;;;;;;11.93;6.95;;;9.10;91.00;;;;;;5117046;27;20019;-48
2022/11/18 05:19:31;;;;;;;10.43;5.63;;;9.00;91.20;;;;;;5116809;28;20490;-52
2022/11/18 05:21:57;;;;;;;16.75;7.65;;;9.00;91.20;;;;;;5117166;28;20028;-49
2022/11/18 05:24:23;;;;;;;16.35;6.95;;;9.00;91.30;;;;;;5116658;28;20038;-49
2022/11/18 05:26:53;;;;;;;9.07;6.13;;;9.10;91.40;;;;;;5116760;28;20016;-52
2022/11/18 05:29:20;;;;;;;7.88;6.22;;;9.10;91.30;;;;;;5116667;28;20479;-49
2022/11/18 05:31:46;;;;;;;12.35;6.07;;;9.20;91.30;;;;;;5116729;28;20072;-51
2022/11/18 05:34:12;;;;;;;11.30;7.20;;;9.20;91.20;;;;;;5116563;28;20054;-49
2022/11/18 05:36:38;;;;;;;14.73;5.63;;;9.30;91.20;;;;;;5116954;27;20100;-53
2022/11/18 05:39:03;;;;;;;13.02;5.25;;;9.30;91.00;;;;;;5116453;28;20063;-49
2022/11/18 05:44:14;;;;;;;7.15;4.30;;;9.30;91.10;;;;;;5116443;28;20077;-50
2022/11/18 05:46:40;;;;;;;17.80;7.43;;;9.40;90.80;;;;;;5114862;28;20055;-49
2022/11/18 05:49:06;;;;;;;13.63;5.45;;;9.40;90.50;;;;;;5114935;28;20062;-49
2022/11/18 05:51:32;;;;;;;9.32;4.82;;;9.30;90.70;;;;;;5116405;28;20095;-50
2022/11/18 05:53:58;;;;;;;11.48;6.00;;;9.40;90.30;;;;;;5115586;27;20415;-51
2022/11/18 05:56:27;;;;;;;17.25;5.85;;;9.50;90.50;;;;;;5115925;28;20020;-49
2022/11/18 05:58:53;;;;;;;11.20;7.82;;;9.70;90.50;;;;;;5115864;28;20480;-50
2022/11/18 06:01:24;;;;;;;13.65;7.15;;;9.70;90.10;;;;;;5116126;28;20054;-50
2022/11/18 06:03:50;;;;;;;16.67;9.00;;;9.70;89.90;;;;;;5116012;28;20428;-50
2022/11/18 06:06:20;;;;;;;22.25;11.15;;;9.60;89.90;;;;;;5115650;28;20470;-54
2022/11/18 06:08:53;;;;;;;15.32;9.05;;;9.40;89.90;;;;;;5116070;28;20467;-51
2022/11/18 06:11:20;;;;;;;13.45;8.57;;;9.40;90.50;;;;;;5114851;28;20463;-51
2022/11/18 06:13:57;;;;;;;18.83;10.60;;;9.40;90.50;;;;;;5115651;28;20032;-49
2022/11/18 06:16:26;;;;;;;15.70;9.75;;;9.40;90.60;;;;;;5114568;28;20468;-48
2022/11/18 06:18:52;;;;;;;21.95;11.60;;;9.30;90.70;;;;;;5115692;28;20103;-48
2022/11/18 06:21:18;;;;;;;17.55;11.00;;;9.10;91.20;;;;;;5115611;28;20479;-51
2022/11/18 06:23:44;;;;;;;20.33;10.25;;;9.30;91.50;;;;;;5115455;28;20024;-48
2022/11/18 06:26:12;;;;;;;20.40;8.15;;;9.20;91.40;;;;;;5113929;28;20111;-50
2022/11/18 06:28:38;;;;;;;16.80;10.23;;;9.20;91.60;;;;;;5115476;28;20031;-48
2022/11/18 06:31:04;;;;;;;11.60;7.07;;;9.10;91.70;;;;;;5113935;28;20034;-50
2022/11/18 06:33:30;;;;;;;17.75;7.53;;;9.10;92.00;;;;;;5115062;28;20028;-49
2022/11/18 06:35:56;;;;;;;17.80;8.05;;;9.10;92.00;;;;;;5115099;28;20076;-48
2022/11/18 06:38:24;;;;;;;16.05;6.60;;;9.10;92.00;;;;;;5115379;28;20131;-48
2022/11/18 15:41:05;;;;;;;12.27;7.75;;;9.90;86.20;;;;;;5114885;27;20590;-62
2022/11/18 15:43:31;;;;;;;14.23;7.25;;;10.00;86.50;;;;;;5111755;28;20422;-61
2022/11/18 15:45:58;;;;;;;9.70;6.07;;;10.10;86.50;;;;;;5111829;28;20028;-62
2022/11/18 15:48:23;;;;;;;8.07;5.80;;;10.00;84.50;;;;;;5076323;28;20081;-62
2022/11/18 15:50:49;;;;;;;14.43;8.50;;;10.00;83.70;;;;;;5111378;28;20418;-62
2022/11/18 15:53:15;;;;;;;16.45;9.32;;;10.10;82.60;;;;;;5111150;28;20078;-63
2022/11/18 15:55:40;;;;;;;10.88;7.38;;;10.10;83.20;;;;;;5111011;28;20460;-61
2022/11/18 15:58:06;;;;;;;20.77;10.70;;;10.10;83.60;;;;;;5111128;28;20016;-60
2022/11/18 16:00:35;;;;;;;25.58;15.65;;;10.10;85.00;;;;;;5110886;28;20023;-61
2022/11/18 16:03:00;;;;;;;28.42;16.08;;;10.10;86.30;;;;;;5111056;28;20024;-63
2022/11/18 16:05:26;;;;;;;34.35;18.48;;;10.10;87.30;;;;;;5110743;28;20016;-62
2022/11/18 16:07:51;;;;;;;34.53;19.80;;;10.10;87.90;;;;;;5110564;28;20364;-62
2022/11/18 16:13:01;;;;;;;30.02;17.98;;;10.00;89.00;;;;;;5110743;28;20134;-62
2022/11/18 16:15:42;;;;;;;30.20;18.17;;;9.80;89.20;;;;;;5110942;28;20028;-61
2022/11/18 16:18:07;;;;;;;;;;;9.80;89.30;;;;;;5111249;28;20455;-62
2022/11/18 16:20:34;;;;;;;27.77;18.20;;;9.90;89.50;;;;;;5092151;28;19915;-63
2022/11/18 16:22:59;;;;;;;31.45;17.75;;;9.80;88.90;;;;;;5110433;28;20024;-63
2022/11/18 16:25:26;;;;;;;26.70;17.42;;;9.80;89.10;;;;;;5110247;28;20023;-62
2022/11/18 16:27:53;;;;;;;24.27;16.90;;;9.80;89.10;;;;;;5110371;28;20429;-62
2022/11/18 16:33:03;;;;;;;31.10;19.45;;;9.80;88.50;;;;;;5110702;28;20066;-62
2022/11/18 16:35:29;;;;;;;30.27;18.55;;;9.80;88.70;;;;;;5110671;28;20463;-63
2022/11/18 16:37:54;;;;;;;33.20;20.70;;;9.80;88.90;;;;;;5110562;28;20387;-62
2022/11/18 16:40:20;;;;;;;41.17;23.52;;;9.90;88.90;;;;;;5080321;28;20047;-63
2022/11/18 16:42:49;;;;;;;43.20;24.50;;;9.80;89.30;;;;;;5070150;28;20440;-61
2022/11/18 16:45:15;;;;;;;48.40;25.85;;;9.80;90.00;;;;;;5051992;28;20117;-63
2022/11/18 16:47:41;;;;;;;42.70;24.95;;;9.70;90.40;;;;;;5069894;28;20021;-63
2022/11/18 16:50:07;;;;;;;41.50;23.65;;;9.70;90.10;;;;;;5069610;28;20029;-61
2022/11/18 16:52:33;;;;;;;35.72;21.67;;;9.60;90.40;;;;;;5055633;28;20035;-63
2022/11/18 16:54:58;;;;;;;33.63;20.25;;;9.60;90.50;;;;;;5038246;28;20028;-62
2022/11/18 16:57:24;;;;;;;35.50;20.48;;;9.60;90.40;;;;;;5038191;28;20481;-62
2022/11/18 16:59:50;;;;;;;33.20;20.63;;;9.60;90.50;;;;;;5056379;28;20029;-63
2022/11/18 17:02:15;;;;;;;38.78;21.92;;;9.60;90.30;;;;;;5056423;28;20362;-62
2022/11/18 17:04:41;;;;;;;36.15;21.75;;;9.60;90.20;;;;;;5056084;28;20056;-61
2022/11/18 17:07:07;;;;;;;34.33;19.73;;;9.40;90.40;;;;;;5055907;28;20013;-63
2022/11/18 17:09:34;;;;;;;41.05;21.13;;;9.10;90.60;;;;;;5037566;28;20029;-62
2022/11/18 17:12:02;;;;;;;39.40;20.77;;;8.90;91.40;;;;;;5055659;28;20047;-62
2022/11/18 17:14:28;;;;;;;33.55;18.48;;;8.80;91.70;;;;;;5055655;28;20040;-61
2022/11/18 17:16:54;;;;;;;28.58;16.60;;;8.60;91.80;;;;;;5055253;28;20025;-61
2022/11/18 17:19:22;;;;;;;29.40;16.80;;;8.50;92.00;;;;;;5055566;28;20032;-63
2022/11/18 17:21:51;;;;;;;27.85;14.90;;;8.50;92.10;;;;;;5055648;28;20016;-62
2022/11/18 17:24:19;;;;;;;26.48;15.43;;;8.40;92.00;;;;;;5055295;28;20037;-61
2022/11/18 17:26:45;;;;;;;16.55;10.38;;;8.30;92.20;;;;;;5037900;28;20013;-64
2022/11/18 17:29:11;;;;;;;15.18;10.20;;;8.30;92.20;;;;;;5055428;28;20025;-61
2022/11/18 17:31:38;;;;;;;15.38;9.63;;;8.20;92.00;;;;;;5055311;28;20346;-61
2022/11/18 17:34:04;;;;;;;15.25;10.02;;;8.00;92.10;;;;;;5036971;28;20533;-62
2022/11/18 17:36:30;;;;;;;17.88;9.45;;;7.90;92.10;;;;;;5054986;28;20096;-61
2022/11/18 17:38:59;;;;;;;16.77;9.48;;;7.90;92.30;;;;;;5054711;28;20103;-61
2022/11/18 17:44:14;;;;;;;20.02;11.50;;;7.70;92.60;;;;;;5055602;28;20036;-59
2022/11/18 17:46:40;;;;;;;18.45;11.13;;;7.70;92.70;;;;;;5055170;28;20029;-61
2022/11/18 17:49:12;;;;;;;23.45;11.88;;;7.70;92.40;;;;;;5055001;28;20475;-60
2022/11/18 17:51:38;;;;;;;27.13;13.05;;;7.60;92.50;;;;;;5054945;28;20055;-61
2022/11/18 17:54:04;;;;;;;30.55;14.25;;;7.60;92.50;;;;;;5054649;28;20032;-62
2022/11/18 17:56:29;;;;;;;27.77;16.00;;;7.50;92.50;;;;;;5054814;28;20101;-60
2022/11/18 17:58:55;;;;;;;29.83;16.95;;;7.50;92.60;;;;;;5054559;28;20036;-60
2022/11/18 18:01:21;;;;;;;33.35;17.80;;;7.30;92.50;;;;;;5036757;28;20025;-62
2022/11/18 18:03:47;;;;;;;29.63;15.63;;;7.30;92.70;;;;;;5053688;28;20045;-61
2022/11/18 18:06:14;;;;;;;36.13;17.90;;;7.30;92.80;;;;;;5054558;28;20468;-61
2022/11/18 18:08:40;;;;;;;33.08;17.80;;;7.20;92.80;;;;;;5054450;28;20524;-59
2022/11/18 18:11:16;;;;;;;44.80;18.92;;;7.20;92.90;;;;;;5054522;28;20096;-62
2022/11/18 18:16:28;;;;;;;39.63;18.35;;;7.00;93.20;;;;;;5054551;28;20086;-60
2022/11/18 18:18:54;;;;;;;37.67;18.52;;;7.00;93.30;;;;;;5054007;28;20024;-61
2022/11/18 18:21:20;;;;;;;39.85;18.05;;;7.10;93.20;;;;;;5055003;28;20397;-61
2022/11/18 18:23:46;;;;;;;33.70;16.05;;;7.10;93.10;;;;;;5035975;28;20116;-61
2022/11/18 18:26:12;;;;;;;31.58;16.73;;;7.10;92.80;;;;;;5054011;28;20021;-63
2022/11/18 18:28:38;;;;;;;37.60;18.60;;;7.00;92.80;;;;;;5054273;28;20404;-60
2022/11/18 18:31:06;;;;;;;41.30;20.20;;;6.90;92.80;;;;;;5054054;28;20029;-61
2022/11/18 18:33:36;;;;;;;36.50;17.88;;;6.90;93.00;;;;;;5055264;28;20036;-61
2022/11/18 18:36:04;;;;;;;42.25;19.75;;;6.90;93.00;;;;;;5054305;28;20044;-62
2022/11/18 18:38:34;;;;;;;41.22;18.75;;;6.80;93.00;;;;;;5054341;28;20075;-62
2022/11/18 18:41:09;;;;;;;41.85;21.55;;;6.70;93.20;;;;;;5054028;28;20045;-61
2022/11/18 18:43:35;;;;;;;47.83;22.75;;;6.50;93.30;;;;;;5054307;28;20021;-60
2022/11/18 18:48:45;;;;;;;43.40;21.10;;;6.40;93.60;;;;;;5054525;28;20615;-61
2022/11/18 18:51:11;;;;;;;41.17;21.15;;;6.40;93.80;;;;;;5053838;28;20092;-61
2022/11/18 18:53:36;;;;;;;42.63;19.65;;;6.40;93.70;;;;;;5053665;28;20028;-51
2022/11/18 18:56:02;;;;;;;49.08;21.65;;;6.50;93.80;;;;;;5053881;28;20029;-51
2022/11/18 18:58:28;;;;;;;49.67;22.30;;;6.40;93.50;;;;;;5035940;28;20078;-51
2022/11/18 19:01:02;;;;;;;49.33;22.58;;;6.30;93.50;;;;;;5054954;28;20060;-52
2022/11/18 19:03:28;;;;;;;45.92;22.40;;;6.30;93.40;;;;;;5053414;28;20377;-51
2022/11/18 19:05:54;;;;;;;41.70;20.88;;;6.30;93.60;;;;;;5053481;28;20017;-50
2022/11/18 19:08:19;;;;;;;51.95;23.23;;;6.30;93.50;;;;;;5035539;28;20017;-49
2022/11/18 19:10:45;;;;;;;44.40;21.00;;;6.40;93.50;;;;;;5055559;28;20457;-50
2022/11/18 19:13:11;;;;;;;40.17;19.85;;;6.50;93.30;;;;;;5054127;28;20032;-49
2022/11/18 19:15:37;;;;;;;36.10;19.23;;;6.60;93.10;;;;;;5053476;28;20029;-51
2022/11/18 19:18:03;;;;;;;31.70;18.70;;;6.50;92.80;;;;;;5054236;28;20029;-50
2022/11/18 19:20:37;;;;;;;38.65;19.95;;;6.30;92.50;;;;;;5054167;28;20021;-49
2022/11/18 19:23:08;;;;;;;39.42;19.70;;;6.20;92.80;;;;;;5036860;28;20021;-49
2022/11/18 19:25:33;;;;;;;;;;;6.20;93.00;;;;;;5053857;28;20053;-50
2022/11/18 19:28:00;;;;;;;45.25;24.13;;;6.10;93.00;;;;;;5053879;28;19955;-50
2022/11/18 19:30:26;;;;;;;45.47;23.35;;;6.10;93.10;;;;;;5053801;28;20036;-50
2022/11/18 19:32:54;;;;;;;46.35;22.92;;;5.90;92.90;;;;;;5053635;28;20362;-51
2022/11/18 19:35:20;;;;;;;49.00;22.80;;;5.90;93.00;;;;;;5053377;28;20078;-51
2022/11/18 19:37:46;;;;;;;40.58;21.17;;;5.90;92.90;;;;;;5035015;28;20040;-48
2022/11/18 19:40:12;;;;;;;37.03;20.23;;;5.80;92.50;;;;;;5053681;28;20041;-49
2022/11/18 19:42:39;;;;;;;38.95;20.70;;;5.80;92.70;;;;;;5035363;28;20029;-52
2022/11/18 19:45:08;;;;;;;40.40;21.25;;;5.70;92.70;;;;;;5035047;28;20025;-49
2022/11/18 19:47:33;;;;;;;41.08;21.70;;;5.80;92.70;;;;;;5053319;28;20385;-51
2022/11/18 19:49:59;;;;;;;33.35;18.77;;;5.80;92.60;;;;;;5053496;28;20021;-49
2022/11/18 19:52:25;;;;;;;34.30;19.40;;;5.90;92.60;;;;;;5052853;28;20435;-49
2022/11/18 19:54:50;;;;;;;32.85;19.20;;;5.90;92.30;;;;;;5052880;28;20512;-51
2022/11/18 19:57:16;;;;;;;32.55;17.77;;;6.00;92.30;;;;;;5053391;28;20025;-50
2022/11/18 19:59:42;;;;;;;31.92;16.27;;;6.00;91.70;;;;;;5053126;28;20032;-54
2022/11/18 20:02:10;;;;;;;32.63;18.25;;;5.80;91.50;;;;;;5053189;28;20021;-49
2022/11/18 20:04:36;;;;;;;31.33;17.80;;;5.70;91.60;;;;;;5055379;28;20047;-56
2022/11/18 20:07:01;;;;;;;28.35;17.55;;;5.70;91.90;;;;;;5053071;28;20439;-48
2022/11/18 20:09:27;;;;;;;27.60;16.17;;;5.50;92.00;;;;;;5055250;28;20025;-50
2022/11/18 20:11:53;;;;;;;30.02;15.88;;;5.40;92.10;;;;;;5053136;28;20029;-50
2022/11/18 20:14:19;;;;;;;27.02;15.88;;;5.40;92.30;;;;;;5053154;28;20389;-48
2022/11/18 20:16:44;;;;;;;30.08;18.13;;;5.40;92.30;;;;;;5036117;28;20029;-52
2022/11/18 20:19:15;;;;;;;26.42;16.20;;;5.40;92.00;;;;;;5052976;28;20025;-51
2022/11/18 20:21:42;;;;;;;27.25;15.65;;;5.30;92.00;;;;;;5053351;28;20040;-49
2022/11/18 20:24:09;;;;;;;31.45;16.98;;;5.30;91.80;;;;;;5053315;28;20032;-48
2022/11/18 20:26:39;;;;;;;25.17;14.75;;;5.30;91.90;;;;;;5054775;28;20036;-50
2022/11/18 20:29:06;;;;;;;22.15;14.07;;;5.20;91.70;;;;;;5057041;28;20029;-50
2022/11/18 20:31:32;;;;;;;28.30;14.65;;;5.20;91.90;;;;;;5057104;28;20052;-49
2022/11/18 20:33:58;;;;;;;24.42;14.55;;;5.10;91.90;;;;;;5057162;28;20025;-51
2022/11/18 20:36:26;;;;;;;30.08;14.43;;;5.20;92.00;;;;;;5056648;28;20036;-50
2022/11/18 20:38:55;;;;;;;22.95;14.27;;;5.10;91.80;;;;;;5056058;28;20028;-49
2022/11/18 20:41:22;;;;;;;25.40;14.73;;;5.10;91.60;;;;;;5056623;28;20021;-52
2022/11/18 20:43:47;;;;;;;31.33;15.38;;;5.30;91.70;;;;;;5039269;28;20429;-50
2022/11/18 20:46:14;;;;;;;26.77;14.00;;;5.30;91.00;;;;;;5056428;28;20052;-49
2022/11/18 20:48:40;;;;;;;23.15;13.93;;;5.30;91.00;;;;;;5056519;28;20473;-50
2022/11/18 20:51:09;;;;;;;24.85;12.73;;;5.20;90.70;;;;;;5056161;28;20100;-51
2022/11/18 20:53:37;;;;;;;23.42;13.07;;;5.10;90.80;;;;;;5056166;28;20125;-49
2022/11/18 20:56:11;;;;;;;21.15;13.80;;;5.10;91.10;;;;;;5056359;28;20424;-49
2022/11/18 20:58:37;;;;;;;22.25;15.15;;;5.10;91.00;;;;;;5056033;28;20029;-51
2022/11/18 21:01:19;;;;;;;22.80;12.88;;;5.00;91.00;;;;;;5055903;28;20036;-50
2022/11/18 21:03:53;;;;;;;25.95;13.88;;;4.90;91.00;;;;;;5056228;28;20021;-50
2022/11/18 21:06:21;;;;;;;23.77;14.25;;;5.00;91.10;;;;;;5037923;28;20031;-48
2022/11/18 21:08:47;;;;;;;19.52;13.00;;;4.90;91.00;;;;;;5056326;28;20048;-52
2022/11/18 21:11:16;;;;;;;21.35;12.57;;;4.80;90.80;;;;;;5038263;28;20027;-49
2022/11/18 21:16:26;;;;;;;18.55;12.48;;;4.80;90.90;;;;;;5056177;28;20052;-55
2022/11/18 21:18:52;;;;;;;16.42;11.45;;;4.80;90.70;;;;;;5037668;28;20029;-49
2022/11/18 21:24:03;;;;;;;21.05;12.45;;;4.60;90.80;;;;;;5055865;28;20095;-51
2022/11/18 21:26:31;;;;;;;18.92;12.30;;;4.60;90.80;;;;;;5055515;28;20017;-51
2022/11/18 21:29:00;;;;;;;18.05;11.43;;;4.60;90.80;;;;;;5055514;28;20025;-48
2022/11/18 21:31:27;;;;;;;21.30;12.65;;;4.60;90.70;;;;;;5055783;28;20062;-48
2022/11/18 21:33:53;;;;;;;15.52;10.02;;;4.50;90.60;;;;;;5055245;28;20024;-51
2022/11/18 21:36:20;;;;;;;15.20;9.80;;;4.50;90.60;;;;;;5037571;28;20048;-51
2022/11/18 21:38:46;;;;;;;14.65;9.45;;;4.60;90.60;;;;;;5054818;28;20025;-52
2022/11/18 21:41:13;;;;;;;13.48;9.27;;;4.50;90.40;;;;;;5055361;28;20055;-49
2022/11/18 21:43:39;;;;;;;14.38;9.35;;;4.50;90.30;;;;;;5055898;28;20096;-50
2022/11/18 21:46:08;;;;;;;13.93;9.15;;;4.40;90.20;;;;;;5037124;28;20029;-51
2022/11/18 21:48:34;;;;;;;14.35;10.00;;;4.40;90.30;;;;;;5055210;28;20123;-50
2022/11/18 21:51:02;;;;;;;10.82;8.05;;;4.50;90.40;;;;;;5054789;28;20029;-49
2022/11/18 21:53:29;;;;;;;10.23;8.52;;;4.50;90.30;;;;;;5054931;28;20047;-48
2022/11/18 21:56:18;;;;;;;12.88;9.05;;;4.50;90.20;;;;;;5037018;28;20032;-49
2022/11/18 21:58:44;;;;;;;11.48;8.40;;;4.50;90.10;;;;;;5054903;28;20079;-49
2022/11/18 22:01:11;;;;;;;10.02;7.88;;;4.60;89.90;;;;;;5036698;28;20028;-48
2022/11/18 22:03:38;;;;;;;10.18;7.85;;;4.50;89.90;;;;;;5054670;28;20021;-48
2022/11/18 22:06:06;;;;;;;10.25;8.13;;;4.40;90.00;;;;;;5036723;28;20129;-58
2022/11/18 22:08:34;;;;;;;10.40;8.43;;;4.40;90.00;;;;;;5054653;28;20013;-60
2022/11/18 22:11:00;;;;;;;10.70;8.10;;;4.30;89.80;;;;;;5036399;28;20136;-49
2022/11/18 22:13:26;;;;;;;11.30;7.90;;;4.40;90.10;;;;;;5036716;28;20119;-48
2022/11/18 22:15:59;;;;;;;11.00;8.07;;;4.40;89.90;;;;;;5036751;28;20392;-50
2022/11/18 22:18:28;;;;;;;10.77;8.10;;;4.40;89.90;;;;;;5036995;28;20029;-50
2022/11/18 22:21:00;;;;;;;11.73;8.23;;;4.30;90.00;;;;;;5054207;28;20385;-48
2022/11/18 22:23:30;;;;;;;11.43;8.25;;;4.40;89.90;;;;;;5054399;28;20025;-61
2022/11/18 22:26:07;;;;;;;14.02;7.47;;;4.40;89.70;;;;;;5054910;28;20025;-60